createdAt,value
2023-02-02T00:00:45.867Z,75.50
2023-02-02T00:02:17.450Z,75.06
2023-02-02T00:03:52.292Z,75.11
2023-02-02T00:05:24.254Z,74.52
2023-02-02T00:06:58.770Z,74.98
2023-02-02T00:08:30.389Z,74.91
2023-02-02T00:10:01.970Z,75.12
2023-02-02T00:11:33.571Z,75.13
2023-02-02T00:13:08.539Z,75.06
2023-02-02T00:14:40.222Z,75.28
2023-02-02T00:16:25.338Z,75.26
2023-02-02T00:17:56.967Z,74.66
2023-02-02T00:19:30.415Z,74.36
2023-02-02T00:21:02.152Z,74.30
2023-02-02T00:22:34.084Z,74.95
2023-02-02T00:24:06.563Z,75.21
2023-02-02T00:25:38.166Z,74.35
2023-02-02T00:27:09.760Z,74.19
2023-02-02T00:28:42.750Z,74.48
2023-02-02T00:30:15.888Z,73.81
2023-02-02T00:31:47.652Z,74.67
2023-02-02T00:33:19.264Z,73.72
2023-02-02T00:34:50.904Z,74.10
2023-02-02T00:36:22.524Z,73.84
2023-02-02T00:37:54.115Z,73.89
2023-02-02T00:39:26.313Z,74.79
2023-02-02T00:41:02.949Z,74.36
2023-02-02T00:42:34.554Z,74.41
2023-02-02T00:44:26.226Z,74.40
2023-02-02T00:45:57.901Z,74.45
2023-02-02T00:47:32.557Z,74.16
2023-02-02T00:49:07.421Z,74.23
2023-02-02T00:50:39.160Z,74.32
2023-02-02T00:52:15.589Z,74.62
2023-02-02T00:53:47.452Z,74.72
2023-02-02T00:55:19.289Z,75.18
2023-02-02T00:56:53.467Z,74.53
2023-02-02T00:58:25.154Z,74.86
2023-02-02T00:59:58.510Z,74.87
2023-02-02T01:01:30.078Z,74.95
2023-02-02T01:03:40.618Z,75.41
2023-02-02T01:05:12.779Z,74.76
2023-02-02T01:06:44.740Z,74.87
2023-02-02T01:08:16.307Z,74.52
2023-02-02T01:09:49.979Z,75.05
2023-02-02T01:11:21.600Z,74.89
2023-02-02T01:12:53.162Z,75.52
2023-02-02T01:14:29.683Z,74.76
2023-02-02T01:16:02.994Z,74.37
2023-02-02T01:17:34.620Z,74.62
2023-02-02T01:19:06.231Z,75.22
2023-02-02T01:20:40.744Z,74.72
2023-02-02T01:22:12.385Z,74.95
2023-02-02T01:23:44.015Z,74.98
2023-02-02T01:25:15.624Z,75.17
2023-02-02T01:26:47.249Z,75.59
2023-02-02T01:28:18.964Z,75.90
2023-02-02T01:29:52.740Z,75.93
2023-02-02T01:31:25.701Z,75.32
2023-02-02T01:32:57.554Z,75.02
2023-02-02T01:34:31.742Z,74.89
2023-02-02T01:36:07.529Z,74.84
2023-02-02T01:37:40.442Z,75.06
2023-02-02T01:39:12.760Z,74.84
2023-02-02T01:40:45.652Z,74.95
2023-02-02T01:42:21.037Z,75.05
2023-02-02T01:43:57.290Z,75.16
2023-02-02T01:45:30.416Z,74.86
2023-02-02T01:47:03.965Z,74.96
2023-02-02T01:48:35.576Z,75.58
2023-02-02T01:50:07.375Z,76.03
2023-02-02T01:51:41.901Z,75.85
2023-02-02T01:53:13.462Z,76.08
2023-02-02T01:54:47.199Z,75.71
2023-02-02T01:56:20.050Z,75.32
2023-02-02T01:57:53.798Z,75.39
2023-02-02T01:59:25.638Z,75.62
2023-02-02T02:00:57.293Z,75.51
2023-02-02T02:02:30.364Z,75.92
2023-02-02T02:04:02.234Z,76.11
2023-02-02T02:05:47.614Z,76.35
2023-02-02T02:07:20.565Z,75.64
2023-02-02T02:08:53.678Z,75.69
2023-02-02T02:10:25.269Z,75.53
2023-02-02T02:11:57.125Z,75.62
2023-02-02T02:13:47.292Z,75.85
2023-02-02T02:15:37.630Z,75.84
2023-02-02T02:17:25.232Z,76.21
2023-02-02T02:19:03.865Z,76.44
2023-02-02T02:21:28.059Z,76.22
2023-02-02T02:23:54.958Z,76.47
2023-02-02T02:25:56.576Z,76.57
2023-02-02T02:27:56.348Z,76.34
2023-02-02T02:30:10.474Z,76.46
2023-02-02T02:32:02.943Z,77.20
2023-02-02T02:33:36.129Z,76.92
2023-02-02T02:35:10.544Z,76.83
2023-02-02T02:36:45.085Z,76.98
2023-02-02T02:38:18.179Z,76.78
2023-02-02T02:39:50.869Z,76.92
2023-02-02T02:41:23.688Z,77.10
2023-02-02T02:42:56.619Z,77.32
2023-02-02T02:44:28.189Z,77.45
2023-02-02T02:45:59.740Z,77.91
2023-02-02T02:47:32.715Z,77.68
2023-02-02T02:49:04.285Z,77.46
2023-02-02T02:50:36.046Z,77.63
2023-02-02T02:52:08.058Z,78.00
2023-02-02T02:53:39.679Z,77.85
2023-02-02T02:55:11.247Z,77.77
2023-02-02T02:56:53.325Z,77.89
2023-02-02T02:58:27.172Z,78.55
2023-02-02T03:00:01.356Z,78.56
2023-02-02T03:01:36.226Z,78.65
2023-02-02T03:03:16.409Z,78.65
2023-02-02T03:04:51.653Z,78.68
2023-02-02T03:06:24.529Z,78.99
2023-02-02T03:07:59.799Z,79.12
2023-02-02T03:09:34.829Z,79.67
2023-02-02T03:11:06.866Z,79.22
2023-02-02T03:12:44.296Z,79.47
2023-02-02T03:14:15.886Z,79.63
2023-02-02T03:15:47.567Z,80.02
2023-02-02T03:17:19.276Z,80.22
2023-02-02T03:18:52.297Z,80.49
2023-02-02T03:20:23.904Z,80.94
2023-02-02T03:21:55.524Z,81.30
2023-02-02T03:23:27.227Z,81.76
2023-02-02T03:24:59.518Z,81.80
2023-02-02T03:26:31.171Z,81.88
2023-02-02T03:28:02.925Z,81.96
2023-02-02T03:29:34.514Z,82.42
2023-02-02T03:31:06.691Z,82.64
2023-02-02T03:32:38.361Z,83.02
2023-02-02T03:34:11.325Z,82.82
2023-02-02T03:35:42.888Z,82.92
2023-02-02T03:37:14.450Z,83.00
2023-02-02T03:38:46.000Z,83.39
2023-02-02T03:40:17.753Z,83.49
2023-02-02T03:41:49.492Z,83.40
2023-02-02T03:43:21.373Z,83.06
2023-02-02T03:44:52.965Z,83.33
2023-02-02T03:46:24.552Z,83.65
2023-02-02T03:47:56.165Z,83.65
2023-02-02T03:49:29.140Z,84.31
2023-02-02T03:51:00.698Z,84.38
2023-02-02T03:52:32.299Z,84.46
2023-02-02T03:54:04.903Z,84.08
2023-02-02T03:55:38.603Z,84.08
2023-02-02T03:57:10.609Z,84.03
2023-02-02T03:58:42.260Z,84.03
2023-02-02T04:00:14.388Z,84.13
2023-02-02T04:01:46.010Z,84.15
2023-02-02T04:03:17.595Z,84.61
2023-02-02T04:04:50.518Z,84.30
2023-02-02T04:06:24.354Z,84.20
2023-02-02T04:07:58.380Z,84.51
2023-02-02T04:09:32.339Z,84.61
2023-02-02T04:11:03.999Z,84.39
2023-02-02T04:12:39.131Z,84.22
2023-02-02T04:14:10.989Z,84.56
2023-02-02T04:15:42.876Z,84.69
2023-02-02T04:17:18.082Z,84.41
2023-02-02T04:18:55.386Z,84.50
2023-02-02T04:20:28.686Z,84.32
2023-02-02T04:22:00.346Z,84.34
2023-02-02T04:23:31.978Z,84.08
2023-02-02T04:25:03.782Z,83.78
2023-02-02T04:26:35.412Z,84.26
2023-02-02T04:28:07.040Z,84.02
2023-02-02T04:29:38.600Z,84.45
2023-02-02T04:31:10.241Z,84.08
2023-02-02T04:32:41.839Z,84.18
2023-02-02T04:34:13.425Z,84.51
2023-02-02T04:35:46.354Z,84.07
2023-02-02T04:37:17.903Z,84.34
2023-02-02T04:38:49.566Z,84.68
2023-02-02T04:40:21.178Z,84.51
2023-02-02T04:41:52.747Z,84.68
2023-02-02T04:43:24.274Z,84.40
2023-02-02T04:44:55.824Z,84.41
2023-02-02T04:46:28.532Z,84.58
2023-02-02T04:48:00.157Z,84.24
2023-02-02T04:49:31.802Z,84.23
2023-02-02T04:51:06.093Z,84.60
2023-02-02T04:52:37.655Z,84.37
2023-02-02T04:54:09.251Z,84.02
2023-02-02T04:55:40.823Z,84.18
2023-02-02T04:57:12.372Z,84.45
2023-02-02T04:58:44.109Z,84.92
2023-02-02T05:00:16.499Z,84.67
2023-02-02T05:01:48.375Z,84.36
2023-02-02T05:03:20.000Z,84.41
2023-02-02T05:04:51.677Z,84.42
2023-02-02T05:06:24.888Z,84.63
2023-02-02T05:07:56.656Z,84.56
2023-02-02T05:09:28.515Z,83.96
2023-02-02T05:11:00.158Z,84.37
2023-02-02T05:12:31.931Z,84.33
2023-02-02T05:14:03.696Z,84.48
2023-02-02T05:15:35.415Z,84.30
2023-02-02T05:17:07.143Z,84.63
2023-02-02T05:18:38.921Z,84.70
2023-02-02T05:20:11.856Z,84.80
2023-02-02T05:21:51.129Z,84.67
2023-02-02T05:23:23.452Z,84.68
2023-02-02T05:24:55.348Z,84.72
2023-02-02T05:26:27.177Z,85.02
2023-02-02T05:27:59.031Z,84.14
2023-02-02T05:29:30.957Z,84.73
2023-02-02T05:31:06.493Z,84.42
2023-02-02T05:32:38.292Z,84.21
2023-02-02T05:34:11.576Z,84.49
2023-02-02T05:35:45.291Z,84.74
2023-02-02T05:37:18.228Z,84.21
2023-02-02T05:38:49.815Z,84.18
2023-02-02T05:40:21.445Z,84.53
2023-02-02T05:41:53.013Z,84.40
2023-02-02T05:43:25.192Z,84.42
2023-02-02T05:44:56.803Z,84.60
2023-02-02T05:46:28.594Z,84.44
2023-02-02T05:48:00.221Z,84.28
2023-02-02T05:49:31.829Z,84.10
2023-02-02T05:51:04.788Z,84.21
2023-02-02T05:52:37.882Z,84.17
2023-02-02T05:54:09.420Z,84.51
2023-02-02T05:55:40.994Z,84.22
2023-02-02T05:57:12.665Z,84.26
2023-02-02T05:58:44.709Z,84.46
2023-02-02T06:00:17.161Z,84.42
2023-02-02T06:01:48.749Z,84.08
2023-02-02T06:03:20.507Z,83.98
2023-02-02T06:04:52.145Z,84.15
2023-02-02T06:06:23.759Z,84.00
2023-02-02T06:07:56.683Z,84.00
2023-02-02T06:09:28.291Z,84.30
2023-02-02T06:10:59.915Z,84.70
2023-02-02T06:12:31.692Z,84.43
2023-02-02T06:14:03.279Z,83.96
2023-02-02T06:15:34.991Z,83.99
2023-02-02T06:17:06.824Z,84.16
2023-02-02T06:18:38.760Z,83.84
2023-02-02T06:20:11.412Z,83.80
2023-02-02T06:21:43.025Z,83.83
2023-02-02T06:23:15.949Z,83.83
2023-02-02T06:24:47.504Z,84.15
2023-02-02T06:26:19.226Z,84.08
2023-02-02T06:27:52.243Z,84.09
2023-02-02T06:29:24.057Z,84.04
2023-02-02T06:30:55.673Z,83.98
2023-02-02T06:32:28.734Z,84.31
2023-02-02T06:34:00.299Z,84.04
2023-02-02T06:35:31.897Z,83.92
2023-02-02T06:37:03.553Z,84.15
2023-02-02T06:38:36.467Z,84.08
2023-02-02T06:40:09.274Z,84.11
2023-02-02T06:41:41.113Z,84.11
2023-02-02T06:43:15.064Z,83.89
2023-02-02T06:44:46.686Z,84.14
2023-02-02T06:46:18.382Z,83.83
2023-02-02T06:47:50.010Z,83.59
2023-02-02T06:49:21.588Z,83.63
2023-02-02T06:50:54.121Z,83.88
2023-02-02T06:52:26.378Z,83.81
2023-02-02T06:53:59.678Z,83.76
2023-02-02T06:55:31.301Z,83.76
2023-02-02T06:57:02.897Z,83.70
2023-02-02T06:58:34.704Z,83.44
2023-02-02T07:00:07.682Z,83.67
2023-02-02T07:01:39.253Z,83.58
2023-02-02T07:03:10.842Z,83.57
2023-02-02T07:04:42.479Z,83.42
2023-02-02T07:06:14.698Z,83.25
2023-02-02T07:07:46.282Z,83.47
2023-02-02T07:09:19.313Z,83.65
2023-02-02T07:11:14.445Z,83.66
2023-02-02T07:12:42.522Z,83.82
2023-02-02T07:14:14.365Z,83.90
2023-02-02T07:15:46.074Z,83.64
2023-02-02T07:17:17.667Z,83.41
2023-02-02T07:18:49.457Z,83.62
2023-02-02T07:20:21.082Z,83.27
2023-02-02T07:21:52.728Z,83.24
2023-02-02T07:23:24.406Z,83.51
2023-02-02T07:24:57.387Z,83.67
2023-02-02T07:26:29.218Z,83.77
2023-02-02T07:28:00.857Z,83.69
2023-02-02T07:29:32.621Z,83.38
2023-02-02T07:31:12.797Z,83.70
2023-02-02T07:32:46.792Z,83.75
2023-02-02T07:34:18.477Z,83.76
2023-02-02T07:35:50.124Z,83.76
2023-02-02T07:37:21.684Z,83.79
2023-02-02T07:38:54.356Z,84.05
2023-02-02T07:40:27.321Z,83.82
2023-02-02T07:41:58.868Z,83.89
2023-02-02T07:43:30.446Z,83.58
2023-02-02T07:45:24.687Z,83.79
2023-02-02T07:46:53.709Z,83.65
2023-02-02T07:48:25.276Z,83.73
2023-02-02T07:49:56.858Z,83.45
2023-02-02T07:51:28.386Z,83.51
2023-02-02T07:53:00.586Z,83.35
2023-02-02T07:54:32.210Z,83.76
2023-02-02T07:56:09.433Z,84.01
2023-02-02T07:57:40.989Z,83.54
2023-02-02T07:59:12.574Z,83.44
2023-02-02T08:00:44.226Z,83.55
2023-02-02T08:02:15.890Z,83.16
2023-02-02T08:03:47.466Z,83.39
2023-02-02T08:05:19.052Z,83.04
2023-02-02T08:06:50.712Z,83.43
2023-02-02T08:08:22.312Z,83.24
2023-02-02T08:09:53.884Z,83.04
2023-02-02T08:11:27.342Z,83.05
2023-02-02T08:12:58.973Z,83.01
2023-02-02T08:14:30.809Z,82.54
2023-02-02T08:16:02.404Z,83.05
2023-02-02T08:17:33.983Z,82.99
2023-02-02T08:19:05.810Z,82.70
2023-02-02T08:20:37.369Z,82.94
2023-02-02T08:22:08.989Z,82.77
2023-02-02T08:23:41.128Z,82.70
2023-02-02T08:25:12.722Z,82.80
2023-02-02T08:26:45.713Z,82.83
2023-02-02T08:28:17.265Z,83.24
2023-02-02T08:29:48.829Z,82.88
2023-02-02T08:31:21.876Z,82.81
2023-02-02T08:32:53.458Z,82.54
2023-02-02T08:34:25.043Z,82.56
2023-02-02T08:35:56.631Z,82.56
2023-02-02T08:37:28.242Z,82.46
2023-02-02T08:39:02.072Z,82.56
2023-02-02T08:40:34.626Z,82.61
2023-02-02T08:42:07.562Z,82.69
2023-02-02T08:43:39.240Z,82.45
2023-02-02T08:46:02.230Z,82.86
2023-02-02T08:47:02.818Z,82.74
2023-02-02T08:48:34.628Z,82.93
2023-02-02T08:50:06.843Z,82.41
2023-02-02T08:51:38.414Z,82.66
2023-02-02T08:53:10.045Z,82.75
2023-02-02T08:54:41.597Z,82.72
2023-02-02T08:56:13.868Z,81.99
2023-02-02T08:57:46.770Z,81.50
2023-02-02T08:59:18.335Z,81.47
2023-02-02T09:00:49.920Z,81.78
2023-02-02T09:02:21.586Z,81.24
2023-02-02T09:03:53.791Z,81.60
2023-02-02T09:05:25.826Z,81.23
2023-02-02T09:06:57.637Z,81.79
2023-02-02T09:08:29.242Z,81.73
2023-02-02T09:10:00.904Z,81.39
2023-02-02T09:11:32.542Z,81.72
2023-02-02T09:13:07.878Z,81.30
2023-02-02T09:14:39.424Z,80.88
2023-02-02T09:16:11.413Z,80.17
2023-02-02T09:17:43.076Z,80.50
2023-02-02T09:19:14.640Z,79.93
2023-02-02T09:20:46.201Z,80.20
2023-02-02T09:22:17.788Z,80.25
2023-02-02T09:23:49.856Z,80.35
2023-02-02T09:25:21.749Z,80.26
2023-02-02T09:26:53.346Z,79.94
2023-02-02T09:28:26.321Z,79.46
2023-02-02T09:29:58.024Z,79.60
2023-02-02T09:31:29.971Z,79.54
2023-02-02T09:33:01.596Z,79.52
2023-02-02T09:34:33.172Z,79.44
2023-02-02T09:36:06.304Z,79.38
2023-02-02T09:37:38.004Z,79.29
2023-02-02T09:39:12.561Z,79.29
2023-02-02T09:40:44.144Z,79.10
2023-02-02T09:42:23.027Z,79.78
2023-02-02T09:43:59.058Z,79.87
2023-02-02T09:45:34.471Z,80.04
2023-02-02T09:47:11.683Z,79.87
2023-02-02T09:48:45.982Z,79.49
2023-02-02T09:50:20.565Z,79.41
2023-02-02T09:51:56.741Z,79.49
2023-02-02T09:53:38.489Z,78.68
2023-02-02T09:55:16.153Z,79.08
2023-02-02T09:56:50.739Z,79.17
2023-02-02T09:58:24.208Z,79.44
2023-02-02T09:59:57.409Z,78.82
2023-02-02T10:01:31.188Z,79.64
2023-02-02T10:03:04.575Z,79.85
2023-02-02T10:04:36.955Z,79.67
2023-02-02T10:06:14.640Z,79.40
2023-02-02T10:07:49.855Z,79.24
2023-02-02T10:09:28.135Z,79.01
2023-02-02T10:10:59.782Z,78.86
2023-02-02T10:12:35.194Z,78.75
2023-02-02T10:14:18.349Z,79.01
2023-02-02T10:15:54.713Z,79.09
2023-02-02T10:17:38.232Z,78.91
2023-02-02T10:19:10.634Z,79.27
2023-02-02T10:20:44.568Z,79.33
2023-02-02T10:22:17.920Z,79.27
2023-02-02T10:23:50.009Z,78.83
2023-02-02T10:25:21.606Z,79.45
2023-02-02T10:26:54.133Z,79.27
2023-02-02T10:28:43.688Z,79.13
2023-02-02T10:30:16.564Z,79.10
2023-02-02T10:31:59.654Z,78.87
2023-02-02T10:33:36.465Z,78.86
2023-02-02T10:35:21.320Z,78.82
2023-02-02T10:37:02.221Z,79.17
2023-02-02T10:38:37.843Z,78.83
2023-02-02T10:40:17.804Z,78.82
2023-02-02T10:41:53.588Z,79.18
2023-02-02T10:43:47.263Z,79.03
2023-02-02T10:45:19.284Z,78.80
2023-02-02T10:46:53.185Z,79.37
2023-02-02T10:48:32.771Z,78.92
2023-02-02T10:50:15.395Z,79.63
2023-02-02T10:51:51.556Z,79.10
2023-02-02T10:53:25.390Z,79.32
2023-02-02T10:55:03.963Z,79.04
2023-02-02T10:56:37.866Z,78.93
2023-02-02T10:58:15.261Z,78.78
2023-02-02T10:59:50.949Z,78.61
2023-02-02T11:01:22.942Z,79.08
2023-02-02T11:02:56.251Z,79.03
2023-02-02T11:04:46.266Z,78.39
2023-02-02T11:06:38.821Z,78.21
2023-02-02T11:08:14.614Z,78.73
2023-02-02T11:09:46.399Z,79.03
2023-02-02T11:11:19.999Z,79.27
2023-02-02T11:12:53.109Z,78.80
2023-02-02T11:14:30.371Z,78.79
2023-02-02T11:16:22.072Z,79.04
2023-02-02T11:17:54.305Z,78.88
2023-02-02T11:19:32.255Z,78.50
2023-02-02T11:21:04.153Z,78.90
2023-02-02T11:22:36.576Z,79.14
2023-02-02T11:24:19.332Z,79.50
2023-02-02T11:25:57.728Z,79.35
2023-02-02T11:27:31.682Z,79.58
2023-02-02T11:29:33.931Z,79.55
2023-02-02T11:31:05.702Z,79.60
2023-02-02T11:32:40.438Z,79.19
2023-02-02T11:34:20.787Z,79.38
2023-02-02T11:36:19.307Z,79.15
2023-02-02T11:37:55.986Z,79.28
2023-02-02T11:39:29.817Z,79.45
2023-02-02T11:41:03.727Z,79.27
2023-02-02T11:42:35.311Z,79.14
2023-02-02T11:44:35.236Z,79.68
2023-02-02T11:46:08.064Z,79.99
2023-02-02T11:47:39.677Z,80.15
2023-02-02T11:49:14.821Z,79.68
2023-02-02T11:50:47.552Z,78.88
2023-02-02T11:52:24.709Z,79.22
2023-02-02T11:54:02.294Z,78.74
2023-02-02T11:55:33.947Z,78.14
2023-02-02T11:57:08.191Z,78.14
2023-02-02T11:58:44.479Z,78.36
2023-02-02T12:00:18.093Z,78.27
2023-02-02T12:01:49.664Z,77.58
2023-02-02T12:03:34.565Z,78.43
2023-02-02T12:05:33.246Z,78.46
2023-02-02T12:07:18.183Z,77.98
2023-02-02T12:09:01.272Z,77.85
2023-02-02T12:10:36.759Z,78.51
2023-02-02T12:12:11.784Z,78.27
2023-02-02T12:13:51.639Z,77.36
2023-02-02T12:15:29.635Z,77.36
2023-02-02T12:17:07.841Z,77.76
2023-02-02T12:18:44.433Z,77.67
2023-02-02T12:20:20.840Z,77.83
2023-02-02T12:21:56.279Z,77.76
2023-02-02T12:23:37.069Z,77.99
2023-02-02T12:25:21.342Z,77.79
2023-02-02T12:26:57.011Z,78.00
2023-02-02T12:28:36.463Z,77.49
2023-02-02T12:30:27.970Z,77.15
2023-02-02T12:32:06.413Z,77.25
2023-02-02T12:33:39.456Z,76.96
2023-02-02T12:35:28.119Z,76.50
2023-02-02T12:37:03.403Z,77.21
2023-02-02T12:38:44.902Z,77.00
2023-02-02T12:40:27.237Z,77.54
2023-02-02T12:42:29.050Z,77.15
2023-02-02T12:44:01.865Z,77.18
2023-02-02T12:45:45.562Z,77.41
2023-02-02T12:47:18.658Z,78.03
2023-02-02T12:48:57.368Z,77.87
2023-02-02T12:50:30.581Z,77.69
2023-02-02T12:52:16.402Z,77.89
2023-02-02T12:54:34.237Z,78.21
2023-02-02T12:56:02.071Z,78.08
2023-02-02T12:57:43.025Z,78.13
2023-02-02T12:59:19.139Z,77.64
2023-02-02T13:01:07.660Z,77.90
2023-02-02T13:02:41.795Z,78.17
2023-02-02T13:04:23.730Z,78.26
2023-02-02T13:06:05.323Z,78.35
2023-02-02T13:07:39.642Z,78.34
2023-02-02T13:09:12.533Z,78.90
2023-02-02T13:10:45.663Z,79.07
2023-02-02T13:12:19.637Z,79.12
2023-02-02T13:13:51.230Z,79.25
2023-02-02T13:15:24.327Z,78.76
2023-02-02T13:16:57.293Z,79.11
2023-02-02T13:18:30.229Z,79.21
2023-02-02T13:20:04.538Z,79.02
2023-02-02T13:21:36.158Z,79.48
2023-02-02T13:23:10.606Z,79.59
2023-02-02T13:24:42.488Z,79.21
2023-02-02T13:26:16.276Z,78.93
2023-02-02T13:27:49.780Z,78.97
2023-02-02T13:29:25.789Z,78.68
2023-02-02T13:30:57.591Z,79.03
2023-02-02T13:32:30.939Z,79.03
2023-02-02T13:34:05.240Z,79.39
2023-02-02T13:35:38.246Z,78.93
2023-02-02T13:37:15.582Z,79.20
2023-02-02T13:38:48.557Z,79.68
2023-02-02T13:40:24.766Z,79.31
2023-02-02T13:41:56.531Z,79.29
2023-02-02T13:43:34.512Z,78.54
2023-02-02T13:45:33.747Z,79.21
2023-02-02T13:47:09.144Z,78.59
2023-02-02T13:48:48.141Z,77.62
2023-02-02T13:50:20.039Z,78.93
2023-02-02T13:52:14.084Z,78.58
2023-02-02T13:54:03.633Z,77.03
2023-02-02T13:55:49.514Z,76.77
2023-02-02T13:57:52.053Z,77.53
2023-02-02T13:59:39.431Z,77.45
2023-02-02T14:01:11.256Z,77.00
2023-02-02T14:02:44.141Z,77.42
2023-02-02T14:04:21.777Z,77.57
2023-02-02T14:06:03.078Z,77.17
2023-02-02T14:07:40.811Z,76.72
2023-02-02T14:09:18.500Z,76.88
2023-02-02T14:10:59.590Z,77.75
2023-02-02T14:12:43.420Z,78.14
2023-02-02T14:14:37.722Z,77.93
2023-02-02T14:16:23.710Z,77.76
2023-02-02T14:17:58.234Z,78.38
2023-02-02T14:19:51.292Z,77.90
2023-02-02T14:22:00.557Z,78.19
2023-02-02T14:23:53.334Z,78.04
2023-02-02T14:25:47.950Z,78.08
2023-02-02T14:28:02.000Z,78.11
2023-02-02T14:29:41.779Z,78.87
2023-02-02T14:31:37.231Z,78.96
2023-02-02T14:33:27.137Z,78.73
2023-02-02T14:34:58.878Z,78.30
2023-02-02T14:36:30.542Z,77.55
2023-02-02T14:38:05.675Z,78.67
2023-02-02T14:39:37.479Z,78.25
2023-02-02T14:41:12.278Z,78.46
2023-02-02T14:43:08.259Z,78.28
2023-02-02T14:45:09.605Z,77.74
2023-02-02T14:46:48.188Z,77.71
2023-02-02T14:48:20.230Z,77.79
2023-02-02T14:49:51.826Z,77.56
2023-02-02T14:51:24.487Z,77.47
2023-02-02T14:53:01.684Z,77.10
2023-02-02T14:54:36.069Z,76.88
2023-02-02T14:56:11.725Z,77.84
2023-02-02T14:57:43.306Z,76.94
2023-02-02T14:59:16.481Z,77.56
2023-02-02T15:00:53.339Z,77.59
2023-02-02T15:02:32.675Z,77.26
2023-02-02T15:04:21.480Z,76.94
2023-02-02T15:06:02.053Z,76.53
2023-02-02T15:07:48.999Z,77.21
2023-02-02T15:09:33.617Z,77.68
2023-02-02T15:11:25.533Z,77.12
2023-02-02T15:13:03.124Z,77.89
2023-02-02T15:14:36.552Z,77.70
2023-02-02T15:16:13.980Z,77.58
2023-02-02T15:17:53.355Z,77.57
2023-02-02T15:19:27.896Z,77.20
2023-02-02T15:21:00.324Z,77.05
2023-02-02T15:22:33.528Z,76.76
2023-02-02T15:24:05.563Z,76.70
2023-02-02T15:25:40.640Z,77.06
2023-02-02T15:27:20.976Z,76.55
2023-02-02T15:28:54.648Z,76.40
2023-02-02T15:30:27.252Z,76.76
2023-02-02T15:31:58.891Z,76.60
2023-02-02T15:33:36.509Z,76.27
2023-02-02T15:35:11.226Z,76.22
2023-02-02T15:36:43.713Z,76.77
2023-02-02T15:38:16.508Z,76.54
2023-02-02T15:39:51.236Z,75.54
2023-02-02T15:41:24.427Z,75.71
2023-02-02T15:42:57.335Z,75.91
2023-02-02T15:44:29.854Z,76.08
2023-02-02T15:46:04.989Z,76.29
2023-02-02T15:47:42.242Z,76.44
2023-02-02T15:49:45.756Z,76.51
2023-02-02T15:51:24.864Z,75.56
2023-02-02T15:53:01.162Z,75.67
2023-02-02T15:55:07.569Z,76.05
2023-02-02T15:56:39.195Z,76.35
2023-02-02T15:58:30.673Z,75.09
2023-02-02T16:00:21.448Z,75.39
2023-02-02T16:02:04.521Z,75.60
2023-02-02T16:03:48.683Z,75.64
2023-02-02T16:05:40.184Z,75.84
2023-02-02T16:07:14.282Z,76.89
2023-02-02T16:08:48.281Z,76.67
2023-02-02T16:10:20.862Z,76.01
2023-02-02T16:11:52.530Z,76.24
2023-02-02T16:13:27.587Z,75.31
2023-02-02T16:14:59.201Z,75.91
2023-02-02T16:16:37.084Z,75.35
2023-02-02T16:18:15.730Z,76.36
2023-02-02T16:19:50.782Z,75.83
2023-02-02T16:21:25.998Z,74.76
2023-02-02T16:23:02.051Z,74.60
2023-02-02T16:26:58.021Z,74.41
2023-02-02T16:29:06.503Z,74.06
2023-02-02T16:30:43.023Z,74.85
2023-02-02T16:32:36.282Z,74.01
2023-02-02T16:34:14.249Z,73.96
2023-02-02T16:36:06.132Z,74.37
2023-02-02T16:38:17.152Z,73.73
2023-02-02T16:39:48.786Z,74.08
2023-02-02T16:41:34.198Z,74.10
2023-02-02T16:43:06.394Z,74.13
2023-02-02T16:44:39.290Z,73.64
2023-02-02T16:46:11.469Z,73.80
2023-02-02T16:47:43.115Z,73.92
2023-02-02T16:49:16.638Z,74.50
2023-02-02T16:50:48.289Z,74.04
2023-02-02T16:52:21.215Z,74.66
2023-02-02T16:54:00.836Z,74.49
2023-02-02T16:55:48.860Z,74.95
2023-02-02T16:57:23.064Z,75.45
2023-02-02T16:58:57.980Z,74.41
2023-02-02T17:00:29.985Z,74.29
2023-02-02T17:02:04.081Z,74.25
2023-02-02T17:03:36.599Z,74.35
2023-02-02T17:05:16.652Z,74.19
2023-02-02T17:06:53.123Z,73.11
2023-02-02T17:09:36.267Z,73.55
2023-02-02T17:11:23.722Z,73.00
2023-02-02T17:12:55.329Z,73.36
2023-02-02T17:14:31.478Z,73.15
2023-02-02T17:16:04.896Z,73.48
2023-02-02T17:17:36.482Z,73.81
2023-02-02T17:19:08.200Z,73.11
2023-02-02T17:20:40.605Z,73.47
2023-02-02T17:22:12.181Z,73.50
2023-02-02T17:23:46.510Z,73.08
2023-02-02T17:25:21.956Z,72.78
2023-02-02T17:26:54.951Z,73.18
2023-02-02T17:28:26.694Z,73.16
2023-02-02T17:29:58.437Z,73.30
2023-02-02T17:31:30.112Z,73.47
2023-02-02T17:33:01.730Z,72.64
2023-02-02T17:34:33.378Z,72.87
2023-02-02T17:36:25.689Z,72.98
2023-02-02T17:38:00.708Z,72.78
2023-02-02T17:39:32.339Z,72.78
2023-02-02T17:42:00.344Z,72.19
2023-02-02T17:43:33.353Z,72.80
2023-02-02T17:45:09.333Z,72.63
2023-02-02T17:46:42.970Z,72.91
2023-02-02T17:48:14.589Z,73.00
2023-02-02T17:49:46.229Z,72.64
2023-02-02T17:51:17.882Z,72.61
2023-02-02T17:52:49.785Z,71.80
2023-02-02T17:54:21.364Z,72.65
2023-02-02T17:55:53.413Z,72.65
2023-02-02T17:57:25.061Z,73.44
2023-02-02T17:58:58.127Z,72.87
2023-02-02T18:00:31.399Z,72.45
2023-02-02T18:02:03.678Z,72.64
2023-02-02T18:03:35.804Z,72.82
2023-02-02T18:05:08.394Z,72.23
2023-02-02T18:06:40.180Z,72.43
2023-02-02T18:08:11.933Z,72.58
2023-02-02T18:09:43.529Z,72.08
2023-02-02T18:11:15.981Z,72.56
2023-02-02T18:12:47.621Z,72.94
2023-02-02T18:14:20.575Z,73.14
2023-02-02T18:15:52.951Z,73.13
2023-02-02T18:17:24.804Z,72.80
2023-02-02T18:18:58.266Z,73.20
2023-02-02T18:20:29.870Z,73.92
2023-02-02T18:22:01.494Z,72.88
2023-02-02T18:23:33.119Z,73.37
2023-02-02T18:25:05.162Z,73.58
2023-02-02T18:26:36.826Z,74.25
2023-02-02T18:28:08.727Z,73.26
2023-02-02T18:29:41.776Z,73.77
2023-02-02T18:31:14.023Z,74.29
2023-02-02T18:32:45.732Z,74.33
2023-02-02T18:34:17.411Z,74.00
2023-02-02T18:35:49.130Z,74.53
2023-02-02T18:37:20.781Z,74.09
2023-02-02T18:38:53.808Z,74.26
2023-02-02T18:40:25.425Z,74.08
2023-02-02T18:41:57.030Z,73.95
2023-02-02T18:43:28.630Z,73.89
2023-02-02T18:45:01.816Z,74.17
2023-02-02T18:46:34.005Z,74.41
2023-02-02T18:48:05.838Z,74.92
2023-02-02T18:49:37.434Z,74.27
2023-02-02T18:51:10.888Z,74.13
2023-02-02T18:52:43.066Z,74.45
2023-02-02T18:54:15.129Z,74.22
2023-02-02T18:55:58.178Z,74.43
2023-02-02T18:57:30.337Z,74.26
2023-02-02T18:59:02.046Z,74.53
2023-02-02T19:00:42.347Z,74.97
2023-02-02T19:02:14.688Z,74.93
2023-02-02T19:05:57.345Z,74.84
2023-02-02T19:10:55.686Z,74.57
2023-02-02T19:12:29.852Z,74.25
2023-02-02T19:14:03.293Z,74.62
2023-02-02T19:15:46.269Z,74.89
2023-02-02T19:17:21.018Z,74.53
2023-02-02T19:18:54.847Z,75.07
2023-02-02T19:20:27.430Z,74.39
2023-02-02T19:21:59.710Z,74.90
2023-02-02T19:23:33.115Z,74.47
2023-02-02T19:25:12.625Z,74.15
2023-02-02T19:26:46.021Z,74.37
2023-02-02T19:28:21.180Z,74.25
2023-02-02T19:29:55.742Z,75.18
2023-02-02T19:31:28.821Z,74.93
2023-02-02T19:33:01.564Z,75.41
2023-02-02T19:34:33.153Z,75.35
2023-02-02T19:36:05.364Z,74.91
2023-02-02T19:37:39.086Z,74.87
2023-02-02T19:39:12.399Z,75.46
2023-02-02T19:40:44.055Z,75.18
2023-02-02T19:42:15.625Z,75.04
2023-02-02T19:43:47.814Z,75.08
2023-02-02T19:45:24.415Z,75.59
2023-02-02T19:46:57.535Z,76.52
2023-02-02T19:48:31.273Z,76.05
2023-02-02T19:50:12.619Z,76.03
2023-02-02T19:51:44.518Z,75.95
2023-02-02T19:53:18.840Z,75.15
2023-02-02T19:54:50.682Z,74.82
2023-02-02T19:56:23.485Z,74.98
2023-02-02T19:57:58.573Z,74.58
2023-02-02T19:59:33.879Z,74.38
2023-02-02T20:01:14.762Z,74.69
2023-02-02T20:02:57.143Z,74.65
2023-02-02T20:04:29.189Z,74.50
2023-02-02T20:06:06.847Z,73.96
2023-02-02T20:07:38.535Z,74.42
2023-02-02T20:09:28.680Z,74.58
2023-02-02T20:11:13.464Z,74.57
2023-02-02T20:12:48.015Z,74.71
2023-02-02T20:14:29.522Z,74.06
2023-02-02T20:16:04.411Z,74.14
2023-02-02T20:17:37.457Z,74.34
2023-02-02T20:19:14.252Z,74.72
2023-02-02T20:20:47.613Z,74.91
2023-02-02T20:22:22.401Z,74.53
2023-02-02T20:23:54.040Z,74.07
2023-02-02T20:25:25.706Z,74.03
2023-02-02T20:26:58.072Z,74.06
2023-02-02T20:28:34.363Z,73.27
2023-02-02T20:30:18.418Z,73.04
2023-02-02T20:31:51.066Z,74.00
2023-02-02T20:33:23.827Z,73.48
2023-02-02T20:35:00.268Z,74.22
2023-02-02T20:36:36.786Z,73.56
2023-02-02T20:38:19.103Z,74.13
2023-02-02T20:39:53.893Z,74.49